Time;durP1;ratioP1;P1;durP2;ratioP2;P2;SDS_P1;SDS_P2;PMS_P1;PMS_P2;Temp;Humidity;BMP_temperature;BMP_pressure;BME280_temperature;BME280_humidity;BME280_pressure;Samples;Min_cycle;Max_cycle;Signal;HPM_P1;HPM_P2
2022/08/09 05:02:13;;;;;;;;;;;16.90;84.30;;;;;;5611307;23;20068;-73
2022/08/09 05:04:39;;;;;;;;;;;17.00;83.40;;;;;;4987108;28;19910;-73
2022/08/09 05:07:04;;;;;;;;;;;17.10;83.70;;;;;;5004750;28;19977;-73
2022/08/09 05:09:30;;;;;;;;;;;17.10;83.40;;;;;;5004905;28;19960;-73
2022/08/09 05:11:57;;;;;;;;;;;17.20;83.10;;;;;;4987297;28;19916;-74
2022/08/09 05:14:23;;;;;;;;;;;17.30;83.00;;;;;;5005333;28;19940;-74
2022/08/09 05:16:48;;;;;;;;;;;17.30;82.40;;;;;;5004615;28;19910;-73
2022/08/09 05:19:16;;;;;;;;;;;17.40;83.00;;;;;;5003822;28;19909;-75
2022/08/09 05:21:45;;;;;;;;;;;17.50;83.00;;;;;;5004767;28;19917;-75
2022/08/09 05:24:10;;;;;;;;;;;17.60;82.60;;;;;;5004952;28;19957;-74
2022/08/09 05:26:36;;;;;;;;;;;17.70;82.20;;;;;;5004250;28;19984;-76
2022/08/09 05:29:02;;;;;;;;;;;17.80;82.10;;;;;;5004948;28;20040;-74
2022/08/09 05:31:27;;;;;;;;;;;17.90;81.80;;;;;;5005305;28;19937;-77
2022/08/09 05:33:53;;;;;;;;;;;18.00;81.50;;;;;;5004416;28;19952;-73
2022/08/09 05:36:19;;;;;;;;;;;18.10;81.10;;;;;;5004998;28;19956;-75
2022/08/09 05:38:44;;;;;;;;;;;18.20;80.90;;;;;;5004228;28;19985;-74
2022/08/09 05:41:10;;;;;;;;;;;18.30;80.00;;;;;;5004673;28;19948;-75
2022/08/09 05:43:35;;;;;;;;;;;18.40;80.00;;;;;;5004221;28;20218;-74
2022/08/09 05:46:01;;;;;;;;;;;18.40;79.90;;;;;;5003989;28;19913;-75
2022/08/09 05:48:27;;;;;;;;;;;18.50;79.90;;;;;;5003601;28;19913;-76
2022/08/09 05:50:53;;;;;;;;;;;18.60;79.80;;;;;;5004037;28;19997;-75
2022/08/09 05:53:18;;;;;;;;;;;18.80;78.80;;;;;;5004449;28;20084;-75
2022/08/09 05:55:44;;;;;;;;;;;18.80;79.60;;;;;;5004611;28;19937;-75
2022/08/09 05:58:10;;;;;;;;;;;18.90;79.70;;;;;;5004779;28;20070;-75
2022/08/09 06:00:36;;;;;;;;;;;19.00;79.50;;;;;;5004408;28;19910;-75
2022/08/09 06:03:02;;;;;;;;;;;19.10;79.40;;;;;;4988745;28;19917;-75
2022/08/09 06:05:29;;;;;;;;;;;19.10;78.90;;;;;;4984993;28;19917;-75
2022/08/09 06:07:54;;;;;;;;;;;19.20;78.50;;;;;;4984361;28;19982;-76
2022/08/09 06:10:20;;;;;;;;;;;19.30;78.90;;;;;;4984479;28;19910;-75
2022/08/09 06:12:46;;;;;;;;;;;19.40;77.70;;;;;;4984190;28;20227;-75
2022/08/09 06:15:11;;;;;;;;;;;19.50;77.40;;;;;;4984581;28;19918;-74
2022/08/09 06:17:37;;;;;;;;;;;19.60;77.00;;;;;;4984330;28;20116;-75
2022/08/09 06:20:03;;;;;;;;;;;19.70;77.00;;;;;;4984741;28;19954;-74
2022/08/09 06:22:29;;;;;;;;;;;19.80;77.30;;;;;;4984462;28;20192;-75
2022/08/09 06:24:54;;;;;;;;;;;19.90;76.60;;;;;;4983425;28;19911;-75
2022/08/09 06:27:20;;;;;;;;;;;20.00;76.00;;;;;;4984098;28;20196;-75
2022/08/09 06:29:45;;;;;;;;;;;20.00;74.30;;;;;;4984027;28;19910;-74
2022/08/09 06:32:11;;;;;;;;;;;20.00;73.70;;;;;;4983120;28;19914;-74
2022/08/09 06:34:37;;;;;;;;;;;20.10;73.50;;;;;;4975528;28;19910;-77
2022/08/09 06:37:02;;;;;;;;;;;20.20;73.00;;;;;;4976661;28;19917;-77
2022/08/09 06:39:29;;;;;;;;;;;20.30;72.80;;;;;;4984055;28;19917;-77
2022/08/09 06:41:54;;;;;;;;;;;20.40;72.80;;;;;;4983345;28;19910;-78
2022/08/09 06:44:25;;;;;;;;;;;20.50;72.60;;;;;;4966737;28;19953;-78
2022/08/09 06:46:50;;;;;;;;;;;20.50;72.30;;;;;;4983372;28;19998;-78
2022/08/09 06:49:16;;;;;;;;;;;20.50;72.10;;;;;;4975328;28;20195;-77
2022/08/09 06:51:42;;;;;;;;;;;20.50;72.00;;;;;;4964230;29;19906;-74
2022/08/09 06:54:08;;;;;;;;;;;20.70;72.00;;;;;;4964447;29;19910;-73
2022/08/09 06:56:33;;;;;;;;;;;20.90;71.90;;;;;;4964238;28;20195;-76
2022/08/09 06:58:59;;;;;;;;;;;21.00;71.50;;;;;;4982484;28;20149;-76
2022/08/09 07:01:25;;;;;;;;;;;21.20;71.30;;;;;;4983559;28;19992;-75
2022/08/09 07:03:51;;;;;;;;;;;21.30;70.80;;;;;;4965349;28;19972;-72
2022/08/09 07:06:16;;;;;;;;;;;21.40;70.30;;;;;;4983592;28;19917;-72
2022/08/09 07:08:42;;;;;;;;;;;21.60;70.30;;;;;;4982830;28;19910;-73
2022/08/09 07:11:08;;;;;;;;;;;21.70;70.00;;;;;;4967581;28;19910;-74
2022/08/09 07:13:33;;;;;;;;;;;21.80;69.20;;;;;;4982095;28;19914;-76
2022/08/09 07:15:59;;;;;;;;;;;21.80;69.30;;;;;;4982221;28;20168;-76
2022/08/09 07:18:25;;;;;;;;;;;22.00;69.20;;;;;;4982020;28;19981;-75
2022/08/09 07:20:51;;;;;;;;;;;22.10;69.50;;;;;;4981895;28;19956;-75
2022/08/09 07:23:16;;;;;;;;;;;22.20;69.10;;;;;;4982415;28;20123;-74
2022/08/09 07:25:42;;;;;;;;;;;22.30;68.90;;;;;;4981465;28;19918;-75
2022/08/09 07:28:10;;;;;;;;;;;22.40;68.90;;;;;;4982010;28;19918;-75
2022/08/09 07:30:36;;;;;;;;;;;22.50;68.50;;;;;;4982326;28;20026;-74
2022/08/09 07:33:02;;;;;;;;;;;22.60;68.40;;;;;;4981629;28;19914;-75
2022/08/09 07:35:28;;;;;;;;;;;22.80;68.30;;;;;;4982327;28;19906;-74
2022/08/09 07:37:53;;;;;;;;;;;22.90;68.10;;;;;;4981868;28;20218;-75
2022/08/09 07:40:19;;;;;;;;;;;22.90;67.50;;;;;;4981806;28;19960;-74
2022/08/09 07:42:49;;;;;;;;;;;23.00;67.10;;;;;;4981397;28;19917;-75
2022/08/09 07:45:14;;;;;;;;;;;23.10;67.10;;;;;;4982171;28;19910;-73
2022/08/09 07:47:40;;;;;;;;;;;23.30;66.80;;;;;;4982204;28;20142;-74
2022/08/09 07:50:06;;;;;;;;;;;23.20;66.50;;;;;;4981872;28;19921;-74
2022/08/09 07:52:31;;;;;;;;;;;23.40;66.60;;;;;;4982089;28;20020;-74
2022/08/09 07:54:57;;;;;;;;;;;23.50;66.40;;;;;;4981343;28;19957;-75
2022/08/09 07:57:23;;;;;;;;;;;23.50;66.50;;;;;;4981951;28;19910;-74
2022/08/09 07:59:48;;;;;;;;;;;23.60;66.00;;;;;;4982029;28;19910;-74
2022/08/09 08:02:14;;;;;;;;;;;23.70;66.00;;;;;;4981520;28;19945;-74
2022/08/09 08:04:40;;;;;;;;;;;23.90;65.50;;;;;;4981999;28;20192;-74
2022/08/09 08:07:06;;;;;;;;;;;24.00;65.30;;;;;;4981847;28;19965;-73
2022/08/09 08:09:31;;;;;;;;;;;24.10;65.50;;;;;;4981695;28;19918;-74
2022/08/09 08:11:57;;;;;;;;;;;24.20;65.40;;;;;;4984521;28;19948;-74
2022/08/09 08:14:23;;;;;;;;;;;24.20;64.90;;;;;;4985362;28;19906;-73
2022/08/09 08:16:48;;;;;;;;;;;24.30;65.00;;;;;;4985012;28;19941;-74
2022/08/09 08:19:14;;;;;;;;;;;24.40;64.60;;;;;;4985191;28;19916;-74
2022/08/09 08:21:39;;;;;;;;;;;24.40;64.30;;;;;;4985291;28;20449;-74
2022/08/09 08:24:05;;;;;;;;;;;24.50;64.20;;;;;;4984799;28;19917;-74
2022/08/09 08:26:32;;;;;;;;;;;24.50;63.80;;;;;;4984997;28;19921;-74
2022/08/09 08:28:58;;;;;;;;;;;24.70;63.60;;;;;;4984996;28;19914;-74
2022/08/09 08:31:23;;;;;;;;;;;24.90;63.10;;;;;;4984987;28;19948;-74
2022/08/09 08:33:49;;;;;;;;;;;24.90;62.90;;;;;;4984634;28;19910;-73
2022/08/09 08:36:14;;;;;;;;;;;25.20;62.40;;;;;;4985272;28;19910;-73
2022/08/09 08:38:40;;;;;;;;;;;25.10;62.40;;;;;;4984994;28;19917;-74
2022/08/09 08:41:06;;;;;;;;;;;25.30;62.10;;;;;;4984427;28;20346;-73
2022/08/09 08:43:32;;;;;;;;;;;25.30;62.00;;;;;;4984790;28;20009;-73
2022/08/09 08:46:03;;;;;;;;;;;25.40;61.90;;;;;;4984619;28;19957;-79
2022/08/09 08:48:33;;;;;;;;;;;25.50;61.30;;;;;;4985033;28;19914;-78
2022/08/09 08:50:59;;;;;;;;;;;25.50;61.20;;;;;;4984523;28;19918;-74
2022/08/09 08:53:25;;;;;;;;;;;25.40;61.20;;;;;;4985740;28;19910;-78
2022/08/09 08:55:51;;;;;;;;;;;25.50;61.20;;;;;;4984309;28;20246;-76
2022/08/09 08:58:17;;;;;;;;;;;25.50;60.80;;;;;;4984945;28;19914;-75
2022/08/09 09:00:43;;;;;;;;;;;25.70;61.10;;;;;;4985364;28;19942;-75
2022/08/09 09:03:09;;;;;;;;;;;25.80;61.00;;;;;;4984317;28;19918;-75
2022/08/09 09:05:38;;;;;;;;;;;25.90;60.90;;;;;;4959538;28;19957;-78
2022/08/09 09:08:04;;;;;;;;;;;26.20;60.00;;;;;;4986431;28;19922;-77
2022/08/09 09:10:31;;;;;;;;;;;26.30;59.40;;;;;;4975953;28;19910;-77
2022/08/09 09:12:58;;;;;;;;;;;26.40;59.20;;;;;;4951307;28;19910;-79
2022/08/09 09:15:24;;;;;;;;;;;26.50;59.10;;;;;;4966978;28;19910;-78
2022/08/09 09:17:49;;;;;;;;;;;26.70;58.90;;;;;;4983966;28;19986;-78
2022/08/09 09:20:15;;;;;;;;;;;26.90;58.00;;;;;;4984216;28;20223;-79
2022/08/09 09:22:53;;;;;;;;;;;26.80;58.00;;;;;;4984681;28;19914;-78
2022/08/09 09:25:36;;;;;;;;;;;27.00;57.30;;;;;;4984395;28;19910;-79
2022/08/09 09:28:02;;;;;;;;;;;27.10;57.30;;;;;;4964725;29;19914;-79
2022/08/09 09:30:28;;;;;;;;;;;27.00;56.70;;;;;;4965051;29;20215;-78
2022/08/09 09:33:01;;;;;;;;;;;27.00;56.70;;;;;;4964617;29;19910;-78
2022/08/09 09:35:27;;;;;;;;;;;27.10;56.40;;;;;;4964723;29;19918;-80
2022/08/09 09:37:53;;;;;;;;;;;27.20;56.50;;;;;;4976396;28;19956;-80
2022/08/09 09:40:19;;;;;;;;;;;27.30;55.50;;;;;;4984302;28;20205;-76
2022/08/09 09:42:55;;;;;;;;;;;27.40;54.90;;;;;;4983752;28;20112;-74
2022/08/09 09:45:22;;;;;;;;;;;27.40;54.50;;;;;;4983397;28;19910;-75
2022/08/09 09:47:48;;;;;;;;;;;27.50;54.70;;;;;;4983194;28;19918;-77
2022/08/09 09:50:13;;;;;;;;;;;27.50;54.50;;;;;;4984509;28;20005;-78
2022/08/09 09:52:55;;;;;;;;;;;27.50;54.60;;;;;;4966779;28;19914;-78
2022/08/09 09:55:21;;;;;;;;;;;27.60;54.60;;;;;;4984115;28;19910;-78
2022/08/09 09:57:56;;;;;;;;;;;27.60;54.60;;;;;;4983952;28;19910;-77
2022/08/09 10:00:23;;;;;;;;;;;27.70;54.70;;;;;;4982987;28;19917;-80
2022/08/09 10:02:49;;;;;;;;;;;27.60;54.70;;;;;;4983224;28;19921;-78
2022/08/09 10:05:18;;;;;;;;;;;27.50;54.70;;;;;;4966581;28;19982;-81
2022/08/09 10:07:44;;;;;;;;;;;27.60;55.00;;;;;;4983531;28;19918;-80
2022/08/09 10:10:27;;;;;;;;;;;27.60;54.50;;;;;;4983194;28;19921;-78
2022/08/09 10:12:53;;;;;;;;;;;27.80;54.60;;;;;;4965734;28;19911;-80
2022/08/09 10:15:19;;;;;;;;;;;27.90;53.70;;;;;;4983105;28;19910;-79
2022/08/09 10:17:50;;;;;;;;;;;27.90;53.80;;;;;;4965914;28;20208;-78
2022/08/09 10:20:16;;;;;;;;;;;28.00;53.90;;;;;;4981982;28;19910;-79
2022/08/09 10:22:43;;;;;;;;;;;28.20;53.80;;;;;;4982872;28;20140;-79
2022/08/09 10:25:15;;;;;;;;;;;28.30;52.20;;;;;;4965810;28;20119;-79
2022/08/09 10:28:06;;;;;;;;;;;28.50;52.30;;;;;;4966200;28;19926;-80
2022/08/09 10:30:34;;;;;;;;;;;28.40;52.00;;;;;;4983448;28;19911;-78
2022/08/09 10:33:06;;;;;;;;;;;28.30;52.00;;;;;;4950135;28;19981;-81
2022/08/09 10:35:33;;;;;;;;;;;28.30;52.30;;;;;;4966443;28;19914;-78
2022/08/09 10:38:02;;;;;;;;;;;28.20;52.20;;;;;;4963012;29;20041;-79
2022/08/09 10:40:28;;;;;;;;;;;28.30;52.10;;;;;;4964199;29;19911;-79
2022/08/09 10:42:56;;;;;;;;;;;28.20;52.00;;;;;;4963623;29;20215;-81
2022/08/09 10:45:23;;;;;;;;;;;28.20;52.40;;;;;;4978336;28;19906;-79
2022/08/09 10:47:48;;;;;;;;;;;28.40;52.00;;;;;;4983336;28;20104;-78
2022/08/09 10:53:19;;;;;;;;;;;28.50;51.40;;;;;;4984221;28;19921;-77
2022/08/09 10:55:45;;;;;;;;;;;28.60;51.60;;;;;;4982892;28;19910;-79
2022/08/09 10:58:35;;;;;;;;;;;28.80;50.70;;;;;;4982546;28;19914;-79
2022/08/09 11:01:24;;;;;;;;;;;28.80;50.90;;;;;;4942079;28;20223;-77
2022/08/09 11:04:08;;;;;;;;;;;29.00;50.70;;;;;;4942191;28;20020;-78
2022/08/09 11:06:38;;;;;;;;;;;29.20;50.10;;;;;;4957839;28;19919;-77
2022/08/09 11:09:05;;;;;;;;;;;29.40;49.80;;;;;;4975267;28;20179;-76
2022/08/09 11:11:49;;;;;;;;;;;29.50;49.20;;;;;;4982475;28;19910;-77
2022/08/09 11:14:33;;;;;;;;;;;29.60;48.40;;;;;;4962875;29;19910;-75
2022/08/09 11:16:58;;;;;;;;;;;29.60;48.80;;;;;;4971426;28;20175;-74
2022/08/09 11:19:43;;;;;;;;;;;29.70;49.80;;;;;;4982499;28;19910;-76
2022/08/09 11:22:08;;;;;;;;;;;29.90;48.20;;;;;;4975441;28;19933;-76
2022/08/09 11:24:53;;;;;;;;;;;30.00;48.10;;;;;;4963826;28;20200;-76
2022/08/09 11:27:38;;;;;;;;;;;30.10;47.30;;;;;;4982072;28;19914;-75
2022/08/09 11:30:05;;;;;;;;;;;30.50;47.20;;;;;;4981914;28;19914;-75
2022/08/09 11:32:49;;;;;;;;;;;31.00;47.10;;;;;;4982494;28;20191;-75
2022/08/09 11:35:15;;;;;;;;;;;31.40;46.50;;;;;;4982052;28;19917;-75
2022/08/09 11:37:41;;;;;;;;;;;31.80;46.30;;;;;;4954809;29;19978;-76
2022/08/09 11:40:08;;;;;;;;;;;32.10;45.40;;;;;;4963034;29;19910;-75
2022/08/09 11:42:39;;;;;;;;;;;32.50;45.00;;;;;;4971816;28;19910;-75
2022/08/09 11:45:17;;;;;;;;;;;33.10;45.00;;;;;;4982325;28;19910;-77
2022/08/09 11:47:43;;;;;;;;;;;34.00;44.20;;;;;;4986335;28;19953;-77
2022/08/09 11:50:09;;;;;;;;;;;35.00;43.40;;;;;;4985151;28;19956;-76
2022/08/09 11:52:54;;;;;;;;;;;36.00;43.10;;;;;;4968706;28;19910;-77
2022/08/09 11:55:32;;;;;;;;;;;36.60;42.40;;;;;;4985742;28;19917;-77
2022/08/09 11:57:59;;;;;;;;;;;37.50;42.10;;;;;;4973352;28;19926;-79
2022/08/09 12:00:26;;;;;;;;;;;38.20;41.40;;;;;;4966953;29;19910;-77
2022/08/09 12:02:52;;;;;;;;;;;38.60;41.00;;;;;;4965993;29;19981;-78
2022/08/09 12:05:18;;;;;;;;;;;39.20;40.50;;;;;;4965988;29;19914;-77
2022/08/09 12:07:44;;;;;;;;;;;39.60;40.00;;;;;;4966642;29;19958;-77
2022/08/09 12:10:11;;;;;;;;;;;39.60;39.80;;;;;;4981960;28;20192;-78
2022/08/09 12:12:43;;;;;;;;;;;39.40;39.80;;;;;;4986040;28;20108;-75
2022/08/09 12:15:25;;;;;;;;;;;39.80;39.40;;;;;;4985414;28;19917;-77
2022/08/09 12:17:51;;;;;;;;;;;40.60;39.50;;;;;;4985293;28;19934;-77
2022/08/09 12:20:17;;;;;;;;;;;41.30;39.20;;;;;;4974740;28;19914;-77
2022/08/09 12:22:44;;;;;;;;;;;41.90;38.90;;;;;;4964993;28;19910;-76
2022/08/09 12:25:16;;;;;;;;;;;41.90;38.40;;;;;;4968206;28;19937;-78
2022/08/09 12:27:42;;;;;;;;;;;41.90;38.20;;;;;;4985741;28;19918;-78
2022/08/09 12:30:08;;;;;;;;;;;41.20;38.20;;;;;;4985799;28;19910;-78
2022/08/09 12:32:34;;;;;;;;;;;42.00;38.50;;;;;;4985750;28;20219;-76
2022/08/09 12:35:02;;;;;;;;;;;42.40;37.90;;;;;;4984959;28;19914;-76
2022/08/09 12:37:35;;;;;;;;;;;42.30;38.10;;;;;;4985912;28;20011;-75
2022/08/09 12:40:08;;;;;;;;;;;43.20;37.90;;;;;;4985115;28;19988;-75
2022/08/09 12:42:34;;;;;;;;;;;44.20;38.10;;;;;;4985245;28;20037;-78
2022/08/09 12:45:01;;;;;;;;;;;44.90;37.00;;;;;;4984973;28;19906;-75
2022/08/09 12:47:27;;;;;;;;;;;44.80;36.80;;;;;;4984773;28;19954;-76
2022/08/09 12:52:42;;;;;;;;;;;44.80;36.20;;;;;;4968244;28;20188;-75
2022/08/09 12:55:09;;;;;;;;;;;45.30;35.80;;;;;;4984271;28;19917;-75
2022/08/09 12:57:35;;;;;;;;;;;45.10;35.30;;;;;;4984120;28;19945;-73
2022/08/09 13:00:19;;;;;;;;;;;45.40;35.60;;;;;;4984126;28;19914;-74
2022/08/09 13:02:52;;;;;;;;;;;45.50;35.60;;;;;;4984481;28;19918;-77
2022/08/09 13:05:18;;;;;;;;;;;45.30;35.40;;;;;;4984297;28;19918;-75
2022/08/09 13:08:03;;;;;;;;;;;45.30;35.60;;;;;;4984407;28;20167;-76
2022/08/09 13:10:29;;;;;;;;;;;46.00;35.80;;;;;;4984491;28;19910;-75
2022/08/09 13:12:54;;;;;;;;;;;46.30;35.50;;;;;;4984600;28;19949;-75
2022/08/09 13:15:20;;;;;;;;;;;47.50;35.30;;;;;;4984143;28;19914;-77
2022/08/09 13:17:46;;;;;;;;;;;47.20;35.20;;;;;;4984157;28;19910;-75
2022/08/09 13:20:12;;;;;;;;;;;45.70;35.10;;;;;;4983738;28;20108;-76
2022/08/09 13:22:46;;;;;;;;;;;45.20;35.20;;;;;;4983789;28;19917;-76
2022/08/09 13:25:12;;;;;;;;;;;45.90;35.10;;;;;;4982000;28;19920;-76
2022/08/09 13:27:38;;;;;;;;;;;47.20;34.70;;;;;;4984059;28;19961;-76
2022/08/09 13:30:05;;;;;;;;;;;46.70;34.50;;;;;;4983070;28;19914;-76
2022/08/09 13:32:47;;;;;;;;;;;46.60;34.70;;;;;;4983931;28;19910;-74
2022/08/09 13:35:14;;;;;;;;;;;47.10;34.20;;;;;;4983283;28;20100;-76
2022/08/09 13:37:40;;;;;;;;;;;47.90;34.10;;;;;;4966912;28;19918;-74
2022/08/09 13:40:07;;;;;;;;;;;47.80;34.30;;;;;;4966646;28;19906;-75
2022/08/09 13:42:32;;;;;;;;;;;47.90;34.10;;;;;;4984097;28;19914;-73
2022/08/09 13:44:58;;;;;;;;;;;47.90;34.10;;;;;;4983680;28;20035;-74
2022/08/09 13:47:24;;;;;;;;;;;48.90;33.70;;;;;;4982992;28;19933;-75
2022/08/09 13:49:50;;;;;;;;;;;49.30;33.10;;;;;;4983624;28;19981;-74
2022/08/09 13:52:15;;;;;;;;;;;50.00;33.60;;;;;;4983452;28;20299;-74
2022/08/09 13:54:41;;;;;;;;;;;49.90;33.00;;;;;;4983699;28;19910;-75
2022/08/09 13:57:07;;;;;;;;;;;49.10;33.50;;;;;;4965947;28;20192;-76
2022/08/09 13:59:34;;;;;;;;;;;48.60;33.30;;;;;;4966500;28;19944;-76
2022/08/09 14:02:00;;;;;;;;;;;48.80;33.30;;;;;;4962924;29;19982;-74
2022/08/09 14:04:26;;;;;;;;;;;48.10;33.20;;;;;;4964594;28;20132;-75
2022/08/09 14:06:56;;;;;;;;;;;48.50;33.30;;;;;;4958885;28;19949;-74
2022/08/09 14:09:22;;;;;;;;;;;48.00;33.20;;;;;;4963248;28;19918;-75
2022/08/09 14:11:48;;;;;;;;;;;48.00;33.40;;;;;;4964104;28;19957;-75
2022/08/09 14:14:13;;;;;;;;;;;47.40;33.50;;;;;;4962687;29;19910;-76
2022/08/09 14:16:39;;;;;;;;;;;47.80;33.50;;;;;;4964002;28;19919;-75
2022/08/09 14:19:05;;;;;;;;;;;48.10;33.20;;;;;;4963267;28;20009;-75
2022/08/09 14:21:30;;;;;;;;;;;48.20;33.20;;;;;;4964045;28;19947;-75
2022/08/09 14:23:56;;;;;;;;;;;48.60;33.50;;;;;;4964077;28;20247;-75
2022/08/09 14:26:23;;;;;;;;;;;50.10;33.30;;;;;;4963143;28;19985;-76
2022/08/09 14:28:48;;;;;;;;;;;50.30;33.50;;;;;;4963844;28;19965;-74
2022/08/09 14:31:14;;;;;;;;;;;50.50;33.30;;;;;;4963339;29;20189;-73
2022/08/09 14:33:40;;;;;;;;;;;49.80;33.10;;;;;;4963831;28;19996;-76
2022/08/09 14:36:05;;;;;;;;;;;47.80;33.10;;;;;;4963132;28;19918;-76
2022/08/09 14:38:31;;;;;;;;;;;48.80;33.40;;;;;;4963981;28;19954;-73
2022/08/09 14:40:57;;;;;;;;;;;49.60;33.20;;;;;;4963712;28;19950;-75
2022/08/09 14:43:22;;;;;;;;;;;49.60;32.60;;;;;;4963036;28;19945;-75
2022/08/09 14:45:48;;;;;;;;;;;49.90;33.00;;;;;;4963694;28;20203;-74
2022/08/09 14:48:14;;;;;;;;;;;49.50;32.70;;;;;;4963361;28;19917;-76
2022/08/09 14:50:39;;;;;;;;;;;49.30;33.00;;;;;;4963500;29;19997;-78
2022/08/09 14:53:06;;;;;;;;;;;49.80;32.80;;;;;;4963278;28;19918;-78
2022/08/09 14:55:32;;;;;;;;;;;50.30;33.00;;;;;;4962631;29;19910;-77
2022/08/09 14:57:58;;;;;;;;;;;50.50;32.40;;;;;;4963127;28;20247;-78
2022/08/09 15:00:23;;;;;;;;;;;50.60;32.60;;;;;;4963053;28;20174;-81
2022/08/09 15:02:49;;;;;;;;;;;51.20;32.60;;;;;;4975968;28;19925;-82
2022/08/09 15:05:21;;;;;;;;;;;51.70;32.40;;;;;;4983432;28;20000;-82
2022/08/09 15:07:52;;;;;;;;;;;51.40;32.00;;;;;;4983785;28;19910;-78
2022/08/09 15:10:21;;;;;;;;;;;47.70;32.60;;;;;;4982621;28;19916;-78
2022/08/09 15:12:47;;;;;;;;;;;45.10;33.30;;;;;;4982510;28;19910;-81
2022/08/09 15:15:12;;;;;;;;;;;46.20;33.80;;;;;;4982803;28;20215;-78
2022/08/09 15:17:38;;;;;;;;;;;46.60;33.90;;;;;;4982526;28;19953;-79
2022/08/09 15:20:07;;;;;;;;;;;45.80;33.90;;;;;;4967898;28;20250;-76
2022/08/09 15:22:38;;;;;;;;;;;45.30;34.20;;;;;;4969910;28;19910;-78
2022/08/09 15:25:05;;;;;;;;;;;46.80;34.00;;;;;;4985536;28;19929;-82
2022/08/09 15:27:34;;;;;;;;;;;47.40;33.20;;;;;;4969495;28;19977;-82
2022/08/09 15:30:00;;;;;;;;;;;48.30;33.00;;;;;;4986638;28;19910;-79
2022/08/09 15:32:26;;;;;;;;;;;48.80;33.00;;;;;;4985484;28;20204;-77
2022/08/09 15:34:51;;;;;;;;;;;48.70;32.50;;;;;;4986031;28;20266;-77
2022/08/09 15:37:37;;;;;;;;;;;46.50;32.60;;;;;;4985439;28;19925;-79
2022/08/09 15:40:03;;;;;;;;;;;44.20;33.60;;;;;;4985916;28;19917;-77
2022/08/09 15:42:30;;;;;;;;;;;44.80;34.20;;;;;;4985558;28;19906;-78
2022/08/09 15:44:57;;;;;;;;;;;46.00;33.80;;;;;;4985812;28;19945;-76
2022/08/09 15:47:25;;;;;;;;;;;47.20;33.30;;;;;;4985043;28;19941;-75
2022/08/09 15:49:52;;;;;;;;;;;48.10;33.00;;;;;;4986209;28;20112;-77
2022/08/09 15:52:17;;;;;;;;;;;48.40;33.10;;;;;;4985539;28;19906;-78
2022/08/09 15:54:43;;;;;;;;;;;48.80;32.60;;;;;;4985934;28;19986;-78
2022/08/09 15:57:09;;;;;;;;;;;47.30;32.60;;;;;;4985004;28;19965;-78
2022/08/09 15:59:34;;;;;;;;;;;47.30;32.90;;;;;;4985951;28;19910;-78
2022/08/09 16:02:01;;;;;;;;;;;47.70;32.90;;;;;;4985266;28;19918;-78
2022/08/09 16:04:27;;;;;;;;;;;46.00;33.30;;;;;;4985251;28;20108;-77
2022/08/09 16:06:52;;;;;;;;;;;44.10;34.00;;;;;;4985858;28;20244;-79
2022/08/09 16:09:18;;;;;;;;;;;42.90;34.50;;;;;;4967853;28;19910;-76
2022/08/09 16:11:44;;;;;;;;;;;41.50;35.10;;;;;;4985748;28;19910;-75
2022/08/09 16:14:10;;;;;;;;;;;40.70;35.70;;;;;;4985116;28;20139;-76
2022/08/09 16:16:36;;;;;;;;;;;41.80;35.80;;;;;;4986078;28;19961;-76
2022/08/09 16:19:02;;;;;;;;;;;42.10;35.50;;;;;;4985340;28;20100;-77
2022/08/09 16:21:28;;;;;;;;;;;42.40;34.90;;;;;;4967771;28;19961;-78
2022/08/09 16:23:54;;;;;;;;;;;43.10;34.80;;;;;;4984850;28;19918;-78
2022/08/09 16:26:19;;;;;;;;;;;43.50;34.50;;;;;;4967837;28;19917;-77
2022/08/09 16:28:45;;;;;;;;;;;44.10;34.30;;;;;;4985826;28;19910;-78
2022/08/09 16:31:11;;;;;;;;;;;44.90;34.00;;;;;;4984677;28;19956;-78
2022/08/09 16:33:42;;;;;;;;;;;45.00;33.90;;;;;;4968219;28;20238;-78
2022/08/09 16:36:11;;;;;;;;;;;45.50;33.70;;;;;;4984907;28;20247;-80
2022/08/09 16:38:37;;;;;;;;;;;45.10;33.50;;;;;;4985534;28;19911;-79
2022/08/09 16:41:02;;;;;;;;;;;45.60;33.50;;;;;;4985308;28;19916;-78
2022/08/09 16:43:28;;;;;;;;;;;45.90;33.50;;;;;;4984387;28;20156;-77
2022/08/09 16:45:54;;;;;;;;;;;46.10;33.30;;;;;;4984982;28;20037;-77
2022/08/09 16:48:23;;;;;;;;;;;46.30;33.20;;;;;;4984702;28;19942;-78
2022/08/09 16:50:49;;;;;;;;;;;46.40;33.40;;;;;;4985428;28;19933;-78
2022/08/09 16:53:14;;;;;;;;;;;46.60;33.10;;;;;;4984537;28;19910;-80
2022/08/09 16:55:40;;;;;;;;;;;46.40;32.90;;;;;;4984737;28;19927;-80
2022/08/09 16:58:06;;;;;;;;;;;45.50;33.10;;;;;;4967521;28;20302;-76
2022/08/09 17:00:32;;;;;;;;;;;43.50;33.90;;;;;;4984391;28;19910;-76
2022/08/09 17:02:57;;;;;;;;;;;41.60;34.90;;;;;;4985326;28;19918;-77
2022/08/09 17:05:23;;;;;;;;;;;39.70;36.00;;;;;;4984825;28;19917;-81
2022/08/09 17:07:49;;;;;;;;;;;37.70;37.80;;;;;;4968495;28;20131;-78
2022/08/09 17:10:16;;;;;;;;;;;36.30;38.10;;;;;;4985065;28;19984;-80
2022/08/09 17:12:43;;;;;;;;;;;35.60;38.60;;;;;;4968720;28;19917;-79
2022/08/09 17:15:09;;;;;;;;;;;35.10;39.10;;;;;;4968887;28;19949;-80
2022/08/09 17:17:36;;;;;;;;;;;34.50;39.60;;;;;;4968490;28;19921;-78
2022/08/09 17:20:02;;;;;;;;;;;34.10;39.90;;;;;;4985506;28;19918;-78
2022/08/09 17:22:28;;;;;;;;;;;34.50;40.30;;;;;;4984691;28;19910;-80
2022/08/09 17:24:53;;;;;;;;;;;34.60;39.30;;;;;;4985325;28;20129;-79
2022/08/09 17:27:19;;;;;;;;;;;34.40;39.50;;;;;;4984065;28;19935;-78
2022/08/09 17:29:51;;;;;;;;;;;33.90;40.10;;;;;;4984960;28;20192;-80
2022/08/09 17:32:17;;;;;;;;;;;33.40;40.60;;;;;;4984190;28;20116;-78
2022/08/09 17:34:42;;;;;;;;;;;33.10;40.90;;;;;;4984208;28;20070;-79
2022/08/09 17:37:09;;;;;;;;;;;32.80;41.20;;;;;;4984405;28;19976;-78
2022/08/09 17:39:36;;;;;;;;;;;32.40;41.50;;;;;;4983748;28;19914;-78
2022/08/09 17:42:02;;;;;;;;;;;32.20;41.90;;;;;;4966953;28;19910;-78
2022/08/09 17:44:27;;;;;;;;;;;32.40;41.80;;;;;;4983328;28;19917;-79
2022/08/09 17:46:53;;;;;;;;;;;32.50;41.40;;;;;;4983579;28;19910;-78
2022/08/09 17:49:20;;;;;;;;;;;32.70;41.30;;;;;;4982636;28;19918;-78
2022/08/09 17:51:46;;;;;;;;;;;33.20;41.00;;;;;;4966852;28;20129;-77
2022/08/09 17:54:12;;;;;;;;;;;34.00;40.50;;;;;;4983822;28;19993;-78
2022/08/09 17:56:38;;;;;;;;;;;33.80;40.20;;;;;;4966661;28;19961;-79
2022/08/09 17:59:04;;;;;;;;;;;33.00;40.90;;;;;;4966714;28;19918;-79
2022/08/09 18:01:30;;;;;;;;;;;32.20;41.50;;;;;;4983298;28;20054;-79
2022/08/09 18:03:56;;;;;;;;;;;31.60;42.20;;;;;;4966965;28;19910;-82
2022/08/09 18:06:22;;;;;;;;;;;31.10;42.60;;;;;;4966586;28;19994;-79
2022/08/09 18:08:48;;;;;;;;;;;30.60;43.10;;;;;;4983850;28;19917;-79
2022/08/09 18:11:13;;;;;;;;;;;30.30;43.60;;;;;;4983473;28;20181;-78
2022/08/09 18:13:39;;;;;;;;;;;29.90;43.90;;;;;;4966439;28;19950;-78
2022/08/09 18:16:05;;;;;;;;;;;29.70;44.20;;;;;;4983430;28;19910;-77
2022/08/09 18:18:31;;;;;;;;;;;29.50;44.50;;;;;;4966052;28;20276;-77
2022/08/09 18:20:58;;;;;;;;;;;29.30;44.80;;;;;;4966523;28;19910;-75
2022/08/09 18:23:24;;;;;;;;;;;29.20;45.00;;;;;;4965541;28;20135;-76
2022/08/09 18:25:49;;;;;;;;;;;29.00;45.40;;;;;;4982823;28;19910;-75
2022/08/09 18:28:15;;;;;;;;;;;28.90;45.30;;;;;;4965489;28;20227;-76
2022/08/09 18:30:41;;;;;;;;;;;28.70;45.70;;;;;;4983546;28;19906;-76
2022/08/09 18:33:07;;;;;;;;;;;28.60;45.60;;;;;;4965825;28;19910;-74
2022/08/09 18:35:32;;;;;;;;;;;28.40;46.00;;;;;;4965695;28;19976;-76
2022/08/09 18:37:58;;;;;;;;;;;28.30;46.10;;;;;;4946849;28;20082;-75
2022/08/09 18:40:24;;;;;;;;;;;28.10;46.20;;;;;;4944119;29;19911;-76
2022/08/09 18:42:49;;;;;;;;;;;28.10;46.40;;;;;;4945420;29;19951;-79
2022/08/09 18:45:15;;;;;;;;;;;28.00;46.70;;;;;;4945069;29;19946;-77
2022/08/09 18:47:43;;;;;;;;;;;27.90;46.80;;;;;;4927400;29;19972;-79
2022/08/09 18:50:09;;;;;;;;;;;27.70;47.10;;;;;;4927518;29;19918;-78
2022/08/09 18:52:35;;;;;;;;;;;27.60;47.30;;;;;;4943886;29;20104;-76
2022/08/09 18:55:01;;;;;;;;;;;27.60;47.30;;;;;;4927318;29;20092;-77
2022/08/09 18:57:26;;;;;;;;;;;27.40;47.40;;;;;;4936858;29;19919;-78
2022/08/09 18:59:52;;;;;;;;;;;27.30;47.70;;;;;;4925573;29;20102;-77
2022/08/09 19:02:18;;;;;;;;;;;27.10;47.60;;;;;;4925039;29;19919;-76
2022/08/09 19:04:44;;;;;;;;;;;27.00;48.10;;;;;;4925075;29;19953;-76
2022/08/09 19:07:10;;;;;;;;;;;26.90;48.10;;;;;;4925368;29;19911;-76
2022/08/09 19:09:35;;;;;;;;;;;26.80;48.40;;;;;;4935901;29;20140;-76
2022/08/09 19:12:02;;;;;;;;;;;26.70;48.90;;;;;;4944213;29;20197;-76
2022/08/09 19:14:28;;;;;;;;;;;26.60;48.50;;;;;;4943829;29;19911;-75
2022/08/09 19:16:54;;;;;;;;;;;26.50;48.70;;;;;;4943963;29;19962;-74
2022/08/09 19:19:19;;;;;;;;;;;26.50;49.00;;;;;;4943497;29;19911;-76
2022/08/09 19:21:45;;;;;;;;;;;26.40;48.90;;;;;;4944868;29;19934;-75
2022/08/09 19:24:10;;;;;;;;;;;26.30;49.10;;;;;;4944299;29;19942;-75